Time;durP1;ratioP1;P1;durP2;ratioP2;P2;SDS_P1;SDS_P2;PMS_P1;PMS_P2;Temp;Humidity;BMP_temperature;BMP_pressure;BME280_temperature;BME280_humidity;BME280_pressure;Samples;Min_cycle;Max_cycle;Signal;HPM_P1;HPM_P2
2022/01/09 00:01:37;;;;;;;1.63;1.53;;;3.70;99.90;;;;;;4936712;29;20254;-77
2022/01/09 00:04:02;;;;;;;2.20;1.60;;;3.80;99.90;;;;;;4936736;29;20626;-78
2022/01/09 00:06:28;;;;;;;3.53;1.50;;;3.60;99.90;;;;;;4935038;29;20195;-76
2022/01/09 00:08:54;;;;;;;1.87;1.60;;;3.70;99.90;;;;;;4935247;29;20234;-76
2022/01/09 00:11:26;;;;;;;1.97;1.77;;;3.60;99.90;;;;;;4934903;29;20197;-76
2022/01/09 00:13:55;;;;;;;1.77;1.30;;;3.80;99.90;;;;;;4935177;29;20218;-76
2022/01/09 00:16:21;;;;;;;2.40;2.20;;;3.70;99.90;;;;;;4934596;29;20686;-76
2022/01/09 00:18:48;;;;;;;4.20;3.20;;;3.60;99.90;;;;;;4935210;29;20924;-76
2022/01/09 00:21:14;;;;;;;28.77;17.33;;;3.70;99.90;;;;;;4935018;29;20189;-77
2022/01/09 00:23:41;;;;;;;26.03;16.00;;;3.70;99.90;;;;;;4934727;29;20273;-75
2022/01/09 00:26:07;;;;;;;2.40;1.30;;;3.80;99.90;;;;;;4934312;29;20207;-75
2022/01/09 00:28:33;;;;;;;1.50;1.40;;;3.70;99.90;;;;;;4934697;29;20188;-75
2022/01/09 00:30:59;;;;;;;1.40;1.30;;;3.80;99.90;;;;;;4934701;29;20187;-75
2022/01/09 00:33:24;;;;;;;1.67;1.30;;;3.80;99.90;;;;;;4934872;29;20194;-75
2022/01/09 00:35:50;;;;;;;1.90;1.60;;;3.80;99.90;;;;;;4934135;29;20580;-77
2022/01/09 00:38:17;;;;;;;3.20;1.40;;;3.80;99.90;;;;;;4936387;29;20182;-76
2022/01/09 00:40:42;;;;;;;1.87;1.57;;;3.70;99.90;;;;;;4938139;29;20246;-76
2022/01/09 00:43:09;;;;;;;1.40;1.30;;;3.60;99.90;;;;;;4938427;29;20179;-76
2022/01/09 00:45:39;;;;;;;2.07;1.40;;;3.60;99.90;;;;;;4920368;29;20214;-76
2022/01/09 00:48:06;;;;;;;1.70;1.60;;;3.50;99.90;;;;;;4935685;29;20182;-77
2022/01/09 00:50:33;;;;;;;1.53;1.30;;;3.50;99.90;;;;;;4934442;29;20661;-75
2022/01/09 00:52:59;;;;;;;1.83;1.40;;;3.50;99.90;;;;;;4934513;29;20195;-75
2022/01/09 00:55:24;;;;;;;3.13;1.50;;;3.50;99.90;;;;;;4933758;29;20309;-76
2022/01/09 00:57:50;;;;;;;1.73;1.47;;;3.50;99.90;;;;;;4934355;29;20773;-75
2022/01/09 01:00:16;;;;;;;2.30;1.40;;;3.50;99.90;;;;;;4934502;29;20318;-75
2022/01/09 01:02:41;;;;;;;1.30;1.20;;;3.50;99.90;;;;;;4934475;29;20270;-76
2022/01/09 01:05:08;;;;;;;1.67;1.50;;;3.40;99.90;;;;;;4933875;29;20554;-76
2022/01/09 01:07:34;;;;;;;1.37;1.20;;;3.40;99.90;;;;;;4934114;29;20559;-77
2022/01/09 01:10:00;;;;;;;2.30;1.40;;;3.50;99.90;;;;;;4934020;29;20274;-75
2022/01/09 01:12:28;;;;;;;2.40;1.50;;;3.40;99.90;;;;;;4940184;29;20303;-76
2022/01/09 01:14:54;;;;;;;2.10;1.30;;;3.60;99.90;;;;;;4939767;29;20230;-76
2022/01/09 01:17:21;;;;;;;1.67;1.20;;;3.50;99.90;;;;;;4940484;29;20198;-76
2022/01/09 01:19:46;;;;;;;1.70;1.53;;;3.60;99.90;;;;;;4940921;29;20189;-76
2022/01/09 01:22:13;;;;;;;1.70;1.40;;;3.60;99.90;;;;;;4940544;29;20615;-76
2022/01/09 01:24:39;;;;;;;1.50;1.40;;;3.70;99.90;;;;;;4939873;29;20293;-77
2022/01/09 01:27:04;;;;;;;1.27;1.17;;;3.60;99.90;;;;;;4940401;29;20183;-77
2022/01/09 01:29:30;;;;;;;2.50;1.30;;;3.60;99.90;;;;;;4940307;29;20181;-76
2022/01/09 01:31:56;;;;;;;1.40;1.30;;;3.60;99.90;;;;;;4940259;29;20202;-76
2022/01/09 01:34:21;;;;;;;1.40;1.30;;;3.60;99.90;;;;;;4939870;29;20731;-76
2022/01/09 01:36:47;;;;;;;1.23;1.13;;;3.60;99.90;;;;;;4939831;29;20193;-75
2022/01/09 01:39:12;;;;;;;1.40;1.30;;;3.70;99.90;;;;;;4940035;29;20242;-76
2022/01/09 01:41:38;;;;;;;1.30;1.20;;;3.70;99.90;;;;;;4940302;29;20217;-76
2022/01/09 01:44:09;;;;;;;1.30;1.20;;;3.70;99.90;;;;;;4939889;29;20230;-76
2022/01/09 01:46:35;;;;;;;1.40;1.30;;;3.80;99.90;;;;;;4939647;29;20199;-76
2022/01/09 01:49:01;;;;;;;1.87;1.40;;;3.70;99.90;;;;;;4939897;29;20184;-76
2022/01/09 01:51:26;;;;;;;1.40;1.30;;;3.90;99.90;;;;;;4939902;29;20182;-76
2022/01/09 01:53:55;;;;;;;1.40;1.30;;;3.80;99.90;;;;;;4939603;29;20215;-74
2022/01/09 01:56:21;;;;;;;1.53;1.30;;;3.80;99.90;;;;;;4939530;29;20617;-74
2022/01/09 01:58:48;;;;;;;1.40;1.30;;;3.80;99.90;;;;;;4939866;29;20183;-75
2022/01/09 02:01:14;;;;;;;1.37;1.27;;;4.00;99.90;;;;;;4939575;29;20191;-75
2022/01/09 02:03:40;;;;;;;2.30;1.13;;;3.90;99.90;;;;;;4939867;29;20723;-75
2022/01/09 02:06:06;;;;;;;2.70;1.30;;;3.90;99.90;;;;;;4939174;29;20199;-75
2022/01/09 02:08:32;;;;;;;1.73;1.30;;;3.80;99.90;;;;;;4939736;29;20213;-76
2022/01/09 02:10:57;;;;;;;1.00;1.00;;;3.90;99.90;;;;;;4939800;29;20487;-75
2022/01/09 02:13:23;;;;;;;1.30;1.20;;;3.70;99.90;;;;;;4939700;29;20194;-75
2022/01/09 02:15:49;;;;;;;1.30;1.20;;;3.80;99.90;;;;;;4939147;29;20223;-75
2022/01/09 02:18:19;;;;;;;1.20;1.17;;;3.80;99.90;;;;;;4939668;29;20194;-76
2022/01/09 02:20:46;;;;;;;1.30;1.20;;;3.70;99.90;;;;;;4939578;29;20179;-75
2022/01/09 02:23:14;;;;;;;1.23;1.13;;;3.60;99.90;;;;;;4936558;29;20190;-75
2022/01/09 02:25:41;;;;;;;1.47;1.10;;;3.80;99.90;;;;;;4936293;29;20207;-74
2022/01/09 02:28:08;;;;;;;0.97;0.97;;;4.00;99.90;;;;;;4936340;29;20315;-74
2022/01/09 02:30:34;;;;;;;3.03;1.20;;;4.20;99.90;;;;;;4936591;29;20187;-76
2022/01/09 02:33:02;;;;;;;1.20;0.97;;;4.30;99.90;;;;;;4936353;29;20183;-75
2022/01/09 02:35:28;;;;;;;1.70;1.00;;;4.40;99.90;;;;;;4935828;29;20222;-76
2022/01/09 02:37:53;;;;;;;0.80;0.80;;;4.40;99.90;;;;;;4936347;29;20178;-76
2022/01/09 02:40:19;;;;;;;1.10;1.00;;;4.50;99.90;;;;;;4936584;29;20187;-75
2022/01/09 02:42:45;;;;;;;0.90;0.90;;;4.60;99.90;;;;;;4936544;29;20247;-74
2022/01/09 02:45:11;;;;;;;0.80;0.80;;;4.60;99.90;;;;;;4936416;29;20199;-75
2022/01/09 02:47:38;;;;;;;0.90;0.90;;;4.70;99.90;;;;;;4936343;29;20629;-75
2022/01/09 02:50:16;;;;;;;0.90;0.90;;;4.70;99.90;;;;;;4936119;29;20187;-76
2022/01/09 02:52:52;;;;;;;1.80;0.90;;;4.70;99.90;;;;;;4936372;29;20266;-76
2022/01/09 02:55:19;;;;;;;0.97;0.97;;;4.60;99.90;;;;;;4935752;29;20234;-76
2022/01/09 02:57:48;;;;;;;1.00;0.90;;;4.60;99.90;;;;;;4936181;29;20238;-75
2022/01/09 03:00:20;;;;;;;1.00;1.00;;;4.50;99.90;;;;;;4936074;29;20203;-76
2022/01/09 03:02:46;;;;;;;0.90;0.90;;;4.60;99.90;;;;;;4936037;29;20182;-76
2022/01/09 03:05:12;;;;;;;0.90;0.90;;;4.50;99.90;;;;;;4935421;29;20255;-76
2022/01/09 03:07:40;;;;;;;0.80;0.80;;;4.50;99.90;;;;;;4935552;29;20183;-77
2022/01/09 03:10:06;;;;;;;1.13;0.90;;;4.50;99.90;;;;;;4935675;29;20555;-76
2022/01/09 03:12:33;;;;;;;1.07;1.00;;;4.40;99.90;;;;;;4935641;29;20676;-77
2022/01/09 03:14:59;;;;;;;0.80;0.80;;;4.40;99.90;;;;;;4934848;29;20227;-76
2022/01/09 03:17:25;;;;;;;1.10;1.00;;;4.40;99.90;;;;;;4935747;29;20182;-77
2022/01/09 03:19:51;;;;;;;1.70;0.90;;;4.40;99.90;;;;;;4935704;29;20175;-75
2022/01/09 03:22:16;;;;;;;2.47;0.97;;;4.50;99.90;;;;;;4935392;29;20742;-76
2022/01/09 03:24:42;;;;;;;0.90;0.90;;;4.50;99.90;;;;;;4935214;29;20203;-76
2022/01/09 03:27:09;;;;;;;0.93;0.90;;;4.50;99.90;;;;;;4935492;29;20671;-76
2022/01/09 03:29:35;;;;;;;0.90;0.90;;;4.60;99.90;;;;;;4935300;29;20222;-76
2022/01/09 03:32:00;;;;;;;1.03;1.00;;;4.80;99.90;;;;;;4935590;29;20270;-76
2022/01/09 03:34:26;;;;;;;0.90;0.90;;;4.70;99.90;;;;;;4934270;29;20234;-77
2022/01/09 03:36:52;;;;;;;0.90;0.90;;;4.70;99.90;;;;;;4935460;29;20179;-76
2022/01/09 03:39:18;;;;;;;0.90;0.90;;;4.80;97.00;;;;;;4935034;29;20190;-76
2022/01/09 03:41:43;;;;;;;1.13;0.90;;;4.80;85.40;;;;;;4935134;29;20183;-76
2022/01/09 03:44:09;;;;;;;1.73;1.00;;;4.80;85.90;;;;;;4934942;29;20189;-77
2022/01/09 03:46:34;;;;;;;1.03;0.90;;;4.80;93.30;;;;;;4934677;29;20203;-75
2022/01/09 03:49:00;;;;;;;0.90;0.90;;;4.90;96.00;;;;;;4935035;29;20545;-76
2022/01/09 03:51:32;;;;;;;1.00;1.00;;;4.80;98.70;;;;;;4935220;29;20179;-75
2022/01/09 03:53:58;;;;;;;1.07;0.80;;;4.80;96.00;;;;;;4934929;29;20189;-76
2022/01/09 03:56:23;;;;;;;2.17;0.90;;;4.80;99.90;;;;;;4934257;29;20203;-76
2022/01/09 03:58:49;;;;;;;0.97;0.90;;;4.80;99.90;;;;;;4934745;29;20660;-75
2022/01/09 04:01:14;;;;;;;0.90;0.90;;;4.70;92.20;;;;;;4934656;29;20198;-75
2022/01/09 04:03:40;;;;;;;0.97;0.97;;;4.80;96.80;;;;;;4934693;29;20175;-75
2022/01/09 04:06:05;;;;;;;0.80;0.80;;;4.80;81.40;;;;;;4934259;29;20295;-75
2022/01/09 04:08:33;;;;;;;1.10;1.00;;;4.70;88.80;;;;;;4934687;29;20678;-76
2022/01/09 04:11:00;;;;;;;0.83;0.83;;;4.80;79.50;;;;;;4934629;29;20183;-77
2022/01/09 04:13:26;;;;;;;2.30;0.80;;;4.90;49.50;;;;;;4934456;29;20179;-76
2022/01/09 04:15:51;;;;;;;0.87;0.87;;;4.80;45.80;;;;;;4934366;29;20300;-76
2022/01/09 04:18:19;;;;;;;0.90;0.90;;;4.80;33.10;;;;;;4934744;29;20178;-78
2022/01/09 04:20:45;;;;;;;0.90;0.90;;;4.80;26.00;;;;;;4934663;29;20684;-77
2022/01/09 04:23:11;;;;;;;0.93;0.93;;;4.80;50.30;;;;;;4934433;29;20668;-77
2022/01/09 04:25:38;;;;;;;0.80;0.80;;;4.80;84.50;;;;;;4933905;29;20203;-76
2022/01/09 04:28:03;;;;;;;1.03;0.97;;;4.80;67.40;;;;;;4934276;29;20548;-77
2022/01/09 04:30:29;;;;;;;1.20;0.87;;;4.70;99.90;;;;;;4934458;29;20239;-76
2022/01/09 04:32:55;;;;;;;0.80;0.80;;;4.70;99.90;;;;;;4934594;29;20668;-77
2022/01/09 04:35:21;;;;;;;0.83;0.83;;;4.70;99.90;;;;;;4933812;29;20759;-77
2022/01/09 04:37:48;;;;;;;0.97;0.97;;;4.60;99.90;;;;;;4934612;29;20235;-76
2022/01/09 04:40:15;;;;;;;1.33;0.90;;;4.60;99.90;;;;;;4934214;29;20191;-75
2022/01/09 04:42:54;;;;;;;1.07;1.07;;;4.60;99.90;;;;;;4934099;29;20187;-76
2022/01/09 04:45:20;;;;;;;1.00;1.00;;;4.50;99.90;;;;;;4933194;29;20209;-76
2022/01/09 04:47:49;;;;;;;0.90;0.90;;;4.60;99.90;;;;;;4934064;29;20707;-76
2022/01/09 04:50:20;;;;;;;0.90;0.90;;;4.50;99.90;;;;;;4934154;29;20315;-76
2022/01/09 04:52:46;;;;;;;0.90;0.90;;;4.40;99.90;;;;;;4934085;29;20185;-77
2022/01/09 04:55:13;;;;;;;4.23;0.90;;;4.40;99.90;;;;;;4933305;29;20600;-75
2022/01/09 04:57:39;;;;;;;1.13;1.00;;;4.40;99.90;;;;;;4934144;29;20175;-76
2022/01/09 05:00:06;;;;;;;0.90;0.90;;;4.30;99.90;;;;;;4933755;29;20191;-76
2022/01/09 05:02:32;;;;;;;0.87;0.87;;;4.20;99.90;;;;;;4934446;29;20185;-76
2022/01/09 05:04:57;;;;;;;0.90;0.90;;;4.20;99.90;;;;;;4933827;29;20580;-76
2022/01/09 05:07:23;;;;;;;0.90;0.90;;;4.10;99.90;;;;;;4934663;29;20186;-75
2022/01/09 05:09:49;;;;;;;0.90;0.90;;;4.10;99.90;;;;;;4934030;29;20170;-76
2022/01/09 05:12:14;;;;;;;2.20;0.90;;;4.00;99.90;;;;;;4934361;29;20179;-76
2022/01/09 05:14:40;;;;;;;0.87;0.87;;;4.00;99.90;;;;;;4933576;29;20314;-76
2022/01/09 05:17:05;;;;;;;0.90;0.90;;;3.90;99.90;;;;;;4934424;29;20197;-75
2022/01/09 05:19:33;;;;;;;0.80;0.80;;;3.80;99.90;;;;;;4934326;29;20187;-75
2022/01/09 05:22:00;;;;;;;0.97;0.97;;;3.70;99.90;;;;;;4934229;29;20644;-76
2022/01/09 05:24:26;;;;;;;1.27;0.90;;;3.60;99.90;;;;;;4933522;29;20656;-75
2022/01/09 05:26:51;;;;;;;0.80;0.80;;;3.60;99.90;;;;;;4934332;29;20179;-77
2022/01/09 05:29:17;;;;;;;0.90;0.90;;;3.50;99.90;;;;;;4934279;29;20175;-77
2022/01/09 05:31:44;;;;;;;0.90;0.90;;;3.40;99.90;;;;;;4934290;29;20178;-76
2022/01/09 05:34:09;;;;;;;0.83;0.83;;;3.40;99.90;;;;;;4934032;29;20632;-76
2022/01/09 05:36:35;;;;;;;0.90;0.90;;;3.40;99.90;;;;;;4933388;29;20288;-75
2022/01/09 05:39:01;;;;;;;1.83;0.90;;;3.30;99.90;;;;;;4934085;29;20187;-75
2022/01/09 05:41:27;;;;;;;0.80;0.80;;;3.30;99.90;;;;;;4934327;29;20218;-76
2022/01/09 05:43:52;;;;;;;1.00;0.90;;;3.30;99.90;;;;;;4934245;29;20211;-76
2022/01/09 05:46:18;;;;;;;0.80;0.80;;;3.30;99.90;;;;;;4933403;29;20230;-76
2022/01/09 05:48:43;;;;;;;0.80;0.80;;;3.20;99.90;;;;;;4934040;29;20190;-76
2022/01/09 05:51:09;;;;;;;0.80;0.80;;;3.20;99.90;;;;;;4933993;29;20812;-76
2022/01/09 05:53:34;;;;;;;0.80;0.80;;;3.20;99.90;;;;;;4933809;29;20669;-76
2022/01/09 05:56:00;;;;;;;0.80;0.80;;;3.20;99.90;;;;;;4933389;29;20226;-77
2022/01/09 05:58:26;;;;;;;1.07;0.90;;;3.10;99.90;;;;;;4937231;29;20179;-76
2022/01/09 06:00:51;;;;;;;1.97;1.10;;;3.10;99.90;;;;;;4937375;29;20719;-76
2022/01/09 06:03:17;;;;;;;1.53;1.00;;;3.00;99.90;;;;;;4937562;29;20189;-76
2022/01/09 06:05:42;;;;;;;0.80;0.80;;;2.90;99.90;;;;;;4936835;29;20203;-76
2022/01/09 06:08:08;;;;;;;0.90;0.90;;;2.80;99.90;;;;;;4937199;29;20179;-76
2022/01/09 06:10:33;;;;;;;1.10;1.00;;;2.80;99.90;;;;;;4937473;29;20266;-75
2022/01/09 06:12:59;;;;;;;7.17;5.00;;;2.80;99.90;;;;;;4937181;29;20278;-76
2022/01/09 06:15:25;;;;;;;3.33;2.60;;;2.80;99.90;;;;;;4937044;29;20230;-76
2022/01/09 06:17:50;;;;;;;1.53;1.43;;;2.80;99.90;;;;;;4937104;29;20539;-77
2022/01/09 06:20:16;;;;;;;1.07;1.07;;;2.80;99.90;;;;;;4937201;29;20186;-77
2022/01/09 06:22:43;;;;;;;2.87;2.53;;;2.80;99.90;;;;;;4936965;29;20179;-76
2022/01/09 06:25:09;;;;;;;2.60;2.40;;;2.80;99.90;;;;;;4936594;29;20330;-76
2022/01/09 06:27:35;;;;;;;3.47;3.23;;;2.80;99.90;;;;;;4937310;29;20235;-77
2022/01/09 06:30:01;;;;;;;1.70;1.60;;;2.80;99.90;;;;;;4937010;29;20206;-76
2022/01/09 06:32:27;;;;;;;1.20;1.10;;;2.80;99.90;;;;;;4936868;29;20841;-76
2022/01/09 06:34:53;;;;;;;1.40;1.30;;;2.80;99.90;;;;;;4936297;29;20215;-77
2022/01/09 06:37:18;;;;;;;1.87;1.77;;;2.80;99.90;;;;;;4937080;29;20238;-78
2022/01/09 06:39:44;;;;;;;1.20;1.10;;;2.80;99.90;;;;;;4940971;29;20187;-76
2022/01/09 06:42:10;;;;;;;1.00;1.00;;;2.90;99.90;;;;;;4939001;29;20194;-76
2022/01/09 06:44:36;;;;;;;1.60;1.50;;;2.90;99.90;;;;;;4937040;29;20224;-76
2022/01/09 06:47:02;;;;;;;1.10;1.10;;;2.80;99.90;;;;;;4938044;29;20203;-77
2022/01/09 06:49:27;;;;;;;1.00;1.00;;;2.80;99.90;;;;;;4939130;29;20191;-76
2022/01/09 06:51:53;;;;;;;1.50;1.40;;;2.80;99.90;;;;;;4939576;29;20233;-75
2022/01/09 06:54:19;;;;;;;1.23;1.00;;;2.80;99.90;;;;;;4938794;29;20238;-76
2022/01/09 06:56:44;;;;;;;0.90;0.90;;;2.70;99.90;;;;;;4938127;29;20238;-75
2022/01/09 06:59:10;;;;;;;1.40;1.30;;;2.70;99.90;;;;;;4937515;29;20186;-75
2022/01/09 07:01:35;;;;;;;1.60;1.50;;;2.70;99.90;;;;;;4937021;29;20195;-76
2022/01/09 07:04:01;;;;;;;1.20;1.10;;;2.70;99.90;;;;;;4936346;29;20553;-75
2022/01/09 07:06:27;;;;;;;1.10;1.10;;;2.60;99.90;;;;;;4935638;29;20195;-76
2022/01/09 07:08:52;;;;;;;1.57;1.17;;;2.60;99.90;;;;;;4935879;29;20185;-77
2022/01/09 07:11:18;;;;;;;1.23;1.10;;;2.50;99.90;;;;;;4936508;29;20270;-76
2022/01/09 07:13:44;;;;;;;1.23;1.13;;;2.50;99.90;;;;;;4936415;29;20263;-76
2022/01/09 07:16:09;;;;;;;1.00;1.00;;;2.50;99.90;;;;;;4935759;29;20237;-76
2022/01/09 07:18:35;;;;;;;0.90;0.90;;;2.50;99.90;;;;;;4936283;29;20571;-76
2022/01/09 07:21:03;;;;;;;0.90;0.90;;;2.50;99.90;;;;;;4936121;29;20724;-77
2022/01/09 07:23:29;;;;;;;1.10;1.00;;;2.50;99.90;;;;;;4937292;29;20527;-77
2022/01/09 07:25:54;;;;;;;0.90;0.90;;;2.50;99.90;;;;;;4939436;29;20206;-77
2022/01/09 07:28:20;;;;;;;1.20;1.13;;;2.50;99.90;;;;;;4937179;29;20190;-78
2022/01/09 07:30:46;;;;;;;20.43;12.07;;;2.40;99.90;;;;;;4937231;29;20555;-78
2022/01/09 07:33:11;;;;;;;11.53;7.40;;;2.50;99.90;;;;;;4936235;29;20189;-77
2022/01/09 07:35:37;;;;;;;2.07;1.30;;;2.50;99.90;;;;;;4935728;29;20273;-78
2022/01/09 07:38:02;;;;;;;2.33;2.00;;;2.50;99.90;;;;;;4936679;29;20176;-78
2022/01/09 07:40:28;;;;;;;2.03;1.60;;;2.50;99.90;;;;;;4936716;29;20223;-77
2022/01/09 07:42:54;;;;;;;2.50;1.57;;;2.60;99.90;;;;;;4936619;29;20175;-76
2022/01/09 07:45:24;;;;;;;2.67;1.60;;;2.60;99.90;;;;;;4935764;29;20195;-77
2022/01/09 07:47:50;;;;;;;1.83;1.40;;;2.60;99.90;;;;;;4935950;29;20190;-76
2022/01/09 07:50:16;;;;;;;3.37;1.33;;;2.60;99.90;;;;;;4936439;29;20197;-76
2022/01/09 07:52:42;;;;;;;5.00;1.50;;;2.60;99.90;;;;;;4935976;29;20638;-77
2022/01/09 07:55:08;;;;;;;2.30;1.40;;;2.60;99.90;;;;;;4935687;29;20311;-78
2022/01/09 07:57:34;;;;;;;2.10;1.40;;;2.60;99.90;;;;;;4935919;29;20254;-78
2022/01/09 08:00:03;;;;;;;3.77;1.57;;;2.70;99.90;;;;;;4935620;29;20687;-77
2022/01/09 08:02:29;;;;;;;4.27;1.70;;;2.70;99.90;;;;;;4936880;29;20225;-79
2022/01/09 08:04:54;;;;;;;4.23;1.47;;;2.70;99.90;;;;;;4938707;29;20207;-78
2022/01/09 08:07:20;;;;;;;4.30;1.80;;;2.70;99.90;;;;;;4938252;29;20541;-79
2022/01/09 08:09:49;;;;;;;5.87;2.00;;;2.80;99.90;;;;;;4939184;29;20266;-79
2022/01/09 08:12:15;;;;;;;5.70;2.30;;;2.90;99.90;;;;;;4935690;29;20225;-78
2022/01/09 08:14:41;;;;;;;6.80;2.23;;;3.00;99.90;;;;;;4934888;29;20231;-78
2022/01/09 08:17:07;;;;;;;8.30;1.90;;;3.10;99.90;;;;;;4937104;29;20183;-78
2022/01/09 08:19:35;;;;;;;4.93;2.37;;;3.10;99.90;;;;;;4933756;29;20182;-78
2022/01/09 08:22:01;;;;;;;7.77;2.17;;;3.30;99.90;;;;;;4924587;29;20257;-79
2022/01/09 08:24:26;;;;;;;9.07;2.60;;;3.30;99.90;;;;;;4928567;29;20187;-78
2022/01/09 08:26:52;;;;;;;7.27;2.00;;;3.50;99.90;;;;;;4925607;29;20190;-78
2022/01/09 08:29:17;;;;;;;6.27;2.20;;;3.40;99.90;;;;;;4918827;29;20284;-77
2022/01/09 08:31:43;;;;;;;6.77;2.27;;;3.70;99.90;;;;;;4919148;29;20179;-79
2022/01/09 08:34:09;;;;;;;6.70;2.53;;;3.70;75.40;;;;;;4921443;29;20188;-77
2022/01/09 08:36:35;;;;;;;5.77;2.10;;;3.60;1.00;;;;;;4924872;29;20199;-77
2022/01/09 08:39:05;;;;;;;6.87;2.40;;;3.70;24.40;;;;;;4925698;29;20183;-77
2022/01/09 08:41:31;;;;;;;6.53;2.20;;;3.60;54.00;;;;;;4920911;29;20192;-79
2022/01/09 08:43:57;;;;;;;6.73;1.80;;;3.60;4.40;;;;;;4917043;29;20206;-78
2022/01/09 08:46:22;;;;;;;6.20;2.00;;;3.60;1.00;;;;;;4915499;29;20231;-77
2022/01/09 08:48:49;;;;;;;5.77;2.00;;;3.40;9.70;;;;;;4915780;29;20230;-78
2022/01/09 08:51:14;;;;;;;8.70;2.30;;;3.40;29.70;;;;;;4915925;29;20184;-77
2022/01/09 08:53:41;;;;;;;9.60;1.93;;;3.40;34.60;;;;;;4915523;29;20266;-77
2022/01/09 08:56:07;;;;;;;7.83;2.50;;;3.50;37.10;;;;;;4914890;29;20771;-76
2022/01/09 08:58:33;;;;;;;7.30;2.13;;;3.50;1.00;;;;;;4915620;29;20184;-77
2022/01/09 09:00:59;;;;;;;5.47;2.43;;;3.50;1.00;;;;;;4915676;29;20235;-78
2022/01/09 09:03:25;;;;;;;8.70;2.17;;;3.60;1.00;;;;;;4925459;29;20559;-77
2022/01/09 09:05:51;;;;;;;5.93;2.00;;;3.60;1.00;;;;;;4926862;29;20329;-77
2022/01/09 09:08:16;;;;;;;8.53;2.37;;;3.70;1.00;;;;;;4928818;29;20179;-76
2022/01/09 09:10:42;;;;;;;7.70;2.00;;;3.70;1.00;;;;;;4919807;29;20278;-77
2022/01/09 09:13:07;;;;;;;10.90;2.40;;;3.70;1.00;;;;;;4915054;29;20176;-77
2022/01/09 09:15:33;;;;;;;4.83;1.80;;;3.90;1.00;;;;;;4915471;29;20216;-76
2022/01/09 09:18:00;;;;;;;11.57;2.40;;;4.00;1.00;;;;;;4926467;29;20637;-77
2022/01/09 09:20:25;;;;;;;10.13;2.30;;;4.00;1.00;;;;;;4928941;29;20238;-77
2022/01/09 09:22:52;;;;;;;8.43;2.07;;;4.00;1.00;;;;;;4934633;29;20186;-77
2022/01/09 09:25:18;;;;;;;5.83;1.80;;;4.10;1.00;;;;;;4934124;29;20207;-77
2022/01/09 09:27:44;;;;;;;7.27;2.40;;;4.20;1.00;;;;;;4934289;29;20182;-77
2022/01/09 09:30:10;;;;;;;5.73;1.93;;;4.30;1.00;;;;;;4934217;29;20179;-77
2022/01/09 09:32:36;;;;;;;5.40;2.03;;;4.40;1.00;;;;;;4933794;29;20206;-78
2022/01/09 09:35:03;;;;;;;7.40;2.00;;;4.60;1.00;;;;;;4929092;29;20327;-77
2022/01/09 09:37:30;;;;;;;22.20;11.57;;;4.30;1.00;;;;;;4927418;29;20661;-77
2022/01/09 09:39:56;;;;;;;9.73;2.67;;;4.90;1.00;;;;;;4928270;29;20187;-77
2022/01/09 09:42:21;;;;;;;6.00;2.23;;;5.10;1.00;;;;;;4929150;29;20171;-77
2022/01/09 09:44:47;;;;;;;5.17;2.20;;;5.00;1.00;;;;;;4937227;29;20321;-77
2022/01/09 09:47:16;;;;;;;6.43;2.20;;;4.90;1.00;;;;;;4940745;29;20183;-77
2022/01/09 09:49:42;;;;;;;6.40;2.20;;;4.70;1.00;;;;;;4915097;29;20190;-77
2022/01/09 09:52:07;;;;;;;8.27;2.10;;;4.70;1.00;;;;;;4937451;29;20183;-78
2022/01/09 09:54:33;;;;;;;4.30;1.90;;;4.60;1.00;;;;;;4938502;29;20219;-78
2022/01/09 09:56:58;;;;;;;7.50;2.57;;;4.60;1.00;;;;;;4939178;29;20180;-78
2022/01/09 09:59:27;;;;;;;8.30;2.10;;;4.50;1.00;;;;;;4939621;29;20214;-79
2022/01/09 10:01:53;;;;;;;8.50;2.23;;;4.50;1.00;;;;;;4940194;29;20202;-78
2022/01/09 10:04:19;;;;;;;5.97;1.97;;;4.50;1.00;;;;;;4940306;29;20183;-78
2022/01/09 10:06:49;;;;;;;13.23;2.63;;;4.60;1.00;;;;;;4940461;29;20527;-78
2022/01/09 10:09:17;;;;;;;7.00;1.90;;;4.60;1.00;;;;;;4940889;29;20186;-78
2022/01/09 10:11:57;;;;;;;5.83;2.43;;;4.60;1.00;;;;;;4941343;29;20186;-78
2022/01/09 10:14:28;;;;;;;7.13;2.37;;;4.80;1.00;;;;;;4940623;29;20672;-77
2022/01/09 10:17:07;;;;;;;9.93;2.87;;;4.60;1.00;;;;;;4941823;29;20179;-79
2022/01/09 10:19:49;;;;;;;8.27;2.50;;;4.60;1.00;;;;;;4942109;29;20179;-79
2022/01/09 10:22:22;;;;;;;7.40;2.37;;;4.60;1.00;;;;;;4942239;29;20664;-79
2022/01/09 10:24:48;;;;;;;7.97;2.27;;;4.60;1.00;;;;;;4940590;29;20195;-79
2022/01/09 10:27:30;;;;;;;9.77;2.90;;;4.60;1.00;;;;;;4944474;29;20310;-80
2022/01/09 10:29:56;;;;;;;4.37;2.17;;;4.70;1.00;;;;;;4943380;29;20180;-82
2022/01/09 10:32:28;;;;;;;7.43;2.17;;;4.80;1.00;;;;;;4928801;29;20558;-79
2022/01/09 10:35:27;;;;;;;10.90;2.47;;;4.80;1.00;;;;;;4932743;29;20224;-80
2022/01/09 10:38:19;;;;;;;6.37;2.17;;;4.90;1.00;;;;;;4872773;29;20219;-80
2022/01/09 10:40:49;;;;;;;7.07;2.20;;;4.90;1.00;;;;;;4926492;29;20219;-78
2022/01/09 10:43:20;;;;;;;6.73;2.60;;;4.80;1.00;;;;;;4922969;29;20267;-79
2022/01/09 10:45:58;;;;;;;9.53;2.67;;;4.80;1.00;;;;;;4923126;29;20330;-78
2022/01/09 10:48:25;;;;;;;5.07;2.03;;;4.70;1.00;;;;;;4930704;29;20582;-78
2022/01/09 10:50:52;;;;;;;5.53;2.17;;;4.70;1.00;;;;;;4931592;29;20195;-78
2022/01/09 10:53:29;;;;;;;5.93;2.77;;;4.80;1.00;;;;;;4931543;29;20326;-78
2022/01/09 10:56:09;;;;;;;5.97;2.43;;;4.70;1.00;;;;;;4930871;29;20211;-78
2022/01/09 10:58:46;;;;;;;6.63;2.30;;;4.70;1.00;;;;;;4928820;29;20180;-79
2022/01/09 11:01:48;;;;;;;7.13;2.37;;;4.60;1.00;;;;;;4923175;29;20557;-78
2022/01/09 11:04:13;;;;;;;6.97;2.00;;;4.50;1.00;;;;;;4863629;29;20232;-78
2022/01/09 11:06:40;;;;;;;4.90;2.00;;;4.60;1.00;;;;;;4910099;29;20212;-78
2022/01/09 11:09:06;;;;;;;5.37;2.10;;;4.80;1.00;;;;;;4922772;29;20191;-78
2022/01/09 11:11:40;;;;;;;6.80;2.03;;;5.10;1.00;;;;;;4920308;29;20180;-78
2022/01/09 11:14:11;;;;;;;6.23;2.13;;;5.10;1.00;;;;;;4921178;29;20176;-78
2022/01/09 11:16:41;;;;;;;4.07;1.83;;;5.30;1.00;;;;;;4921589;29;20200;-78
2022/01/09 11:19:15;;;;;;;3.03;1.57;;;5.30;1.00;;;;;;4921682;29;20191;-78
2022/01/09 11:21:49;;;;;;;3.43;1.40;;;5.60;99.90;;;;;;4923253;29;20652;-79
2022/01/09 11:24:33;;;;;;;5.20;2.00;;;5.70;99.90;;;;;;4931652;29;20172;-78
2022/01/09 11:27:16;;;;;;;4.47;1.30;;;8.00;1.00;;;;;;4929527;29;20545;-78
2022/01/09 11:30:03;;;;;;;3.23;1.60;;;9.00;1.00;;;;;;4936398;29;20180;-81
2022/01/09 11:32:56;;;;;;;4.43;1.63;;;8.30;22.20;;;;;;4941719;29;20194;-79
2022/01/09 11:35:43;;;;;;;4.50;1.83;;;8.00;99.90;;;;;;4933149;29;20255;-79
2022/01/09 11:38:25;;;;;;;9.07;2.07;;;6.80;1.00;;;;;;4930019;29;20183;-78
2022/01/09 11:40:50;;;;;;;5.30;1.53;;;6.30;1.00;;;;;;4940025;29;20175;-80
2022/01/09 11:43:18;;;;;;;3.13;1.80;;;6.10;1.00;;;;;;4939708;29;20190;-79
2022/01/09 11:45:57;;;;;;;3.77;1.67;;;6.10;25.00;;;;;;4940268;29;20207;-79
2022/01/09 11:48:57;;;;;;;3.47;1.53;;;6.20;1.00;;;;;;4939194;29;20179;-79
2022/01/09 11:51:25;;;;;;;6.07;1.60;;;6.20;1.00;;;;;;4933149;29;20222;-79
2022/01/09 11:53:55;;;;;;;6.00;1.80;;;7.00;1.00;;;;;;4929426;29;20625;-80
2022/01/09 11:56:52;;;;;;;6.13;1.70;;;7.50;99.90;;;;;;4934842;29;20227;-80
2022/01/09 11:59:26;;;;;;;3.40;1.60;;;7.40;99.90;;;;;;4937042;29;20187;-80
2022/01/09 12:01:55;;;;;;;4.10;2.23;;;7.30;1.00;;;;;;4936529;29;20656;-78
2022/01/09 12:04:36;;;;;;;5.33;1.70;;;7.10;1.00;;;;;;4925851;29;20184;-79
2022/01/09 12:07:04;;;;;;;3.37;1.50;;;6.80;1.00;;;;;;4918049;29;20687;-79
2022/01/09 12:09:36;;;;;;;3.20;1.60;;;6.70;1.00;;;;;;4922696;29;20183;-80
2022/01/09 12:12:05;;;;;;;5.13;1.63;;;6.60;99.90;;;;;;4936479;29;20194;-78
2022/01/09 12:15:01;;;;;;;2.90;1.50;;;6.40;1.00;;;;;;4933942;29;20301;-79
2022/01/09 12:17:33;;;;;;;4.77;1.63;;;7.50;1.00;;;;;;4924297;29;20187;-79
2022/01/09 12:20:05;;;;;;;4.93;1.80;;;8.20;99.90;;;;;;4917903;29;20191;-78
2022/01/09 12:22:46;;;;;;;4.73;1.97;;;7.30;99.90;;;;;;4926836;29;20216;-79
2022/01/09 12:25:32;;;;;;;3.87;1.90;;;6.70;1.00;;;;;;4939813;29;20214;-78
2022/01/09 12:28:04;;;;;;;6.03;2.07;;;6.20;1.00;;;;;;4947447;29;20251;-79
2022/01/09 12:30:33;;;;;;;2.07;1.40;;;6.10;1.00;;;;;;4941682;29;20233;-78
2022/01/09 12:33:10;;;;;;;4.77;1.67;;;6.10;1.00;;;;;;4948440;29;20254;-79
2022/01/09 12:35:56;;;;;;;4.40;2.00;;;6.10;1.00;;;;;;4966607;23;20230;-76
2022/01/09 12:38:23;;;;;;;5.07;1.80;;;6.00;1.00;;;;;;4935096;29;20267;-75
2022/01/09 12:41:01;;;;;;;4.67;1.70;;;5.90;1.00;;;;;;4938088;29;20179;-76
2022/01/09 12:43:28;;;;;;;2.87;1.80;;;5.90;99.90;;;;;;4935347;29;20206;-76
2022/01/09 12:45:54;;;;;;;3.00;1.70;;;6.30;1.00;;;;;;4934974;29;20254;-76
2022/01/09 12:48:31;;;;;;;4.80;1.60;;;7.70;1.00;;;;;;4935913;29;20222;-76
2022/01/09 12:51:10;;;;;;;3.83;1.77;;;7.50;1.00;;;;;;4935018;29;20190;-75
2022/01/09 12:53:48;;;;;;;5.67;1.87;;;8.10;99.90;;;;;;4921821;29;20181;-76
2022/01/09 12:56:16;;;;;;;10.80;1.90;;;7.90;1.00;;;;;;4934015;29;20222;-76
2022/01/09 12:58:44;;;;;;;4.10;1.83;;;8.00;1.00;;;;;;4934566;29;20183;-76
2022/01/09 13:01:13;;;;;;;4.13;1.60;;;9.00;1.00;;;;;;4934843;29;20187;-76
2022/01/09 13:03:42;;;;;;;4.83;1.77;;;9.70;49.60;;;;;;4934631;29;20267;-76
2022/01/09 13:06:10;;;;;;;3.07;1.60;;;10.10;49.20;;;;;;4933422;29;20289;-74